sensor_id;sensor_type;location;lat;lon;timestamp;P1;durP1;ratioP1;P2;durP2;ratioP2
20491;SDS011;10404;51.468;6.762;2023-08-06T00:02:12;4.65;;;4.35;;
20491;SDS011;10404;51.468;6.762;2023-08-06T00:04:38;3.30;;;3.00;;
20491;SDS011;10404;51.468;6.762;2023-08-06T00:07:04;4.47;;;4.10;;
20491;SDS011;10404;51.468;6.762;2023-08-06T00:09:29;3.28;;;2.70;;
20491;SDS011;10404;51.468;6.762;2023-08-06T00:11:55;3.80;;;3.50;;
20491;SDS011;10404;51.468;6.762;2023-08-06T00:14:20;3.92;;;2.70;;
20491;SDS011;10404;51.468;6.762;2023-08-06T00:16:46;4.07;;;3.47;;
20491;SDS011;10404;51.468;6.762;2023-08-06T00:19:12;3.78;;;3.45;;
20491;SDS011;10404;51.468;6.762;2023-08-06T00:21:37;3.42;;;3.05;;
20491;SDS011;10404;51.468;6.762;2023-08-06T00:24:03;4.72;;;4.43;;
20491;SDS011;10404;51.468;6.762;2023-08-06T00:26:29;3.50;;;2.65;;
20491;SDS011;10404;51.468;6.762;2023-08-06T00:28:54;3.90;;;3.60;;
20491;SDS011;10404;51.468;6.762;2023-08-06T00:31:20;4.10;;;3.80;;
20491;SDS011;10404;51.468;6.762;2023-08-06T00:33:45;3.20;;;2.85;;
20491;SDS011;10404;51.468;6.762;2023-08-06T00:36:11;4.25;;;3.95;;
20491;SDS011;10404;51.468;6.762;2023-08-06T00:38:36;2.97;;;2.67;;
20491;SDS011;10404;51.468;6.762;2023-08-06T00:41:02;3.63;;;3.33;;
20491;SDS011;10404;51.468;6.762;2023-08-06T00:43:27;3.22;;;2.80;;
20491;SDS011;10404;51.468;6.762;2023-08-06T00:45:53;3.53;;;3.22;;
20491;SDS011;10404;51.468;6.762;2023-08-06T00:48:19;4.20;;;3.80;;
20491;SDS011;10404;51.468;6.762;2023-08-06T00:50:45;2.83;;;2.50;;
20491;SDS011;10404;51.468;6.762;2023-08-06T00:53:11;3.67;;;3.38;;
20491;SDS011;10404;51.468;6.762;2023-08-06T00:55:37;3.63;;;2.80;;
20491;SDS011;10404;51.468;6.762;2023-08-06T00:58:03;3.63;;;3.33;;
20491;SDS011;10404;51.468;6.762;2023-08-06T01:00:29;3.15;;;2.85;;
20491;SDS011;10404;51.468;6.762;2023-08-06T01:02:55;3.47;;;3.10;;
20491;SDS011;10404;51.468;6.762;2023-08-06T01:05:21;3.67;;;3.38;;
20491;SDS011;10404;51.468;6.762;2023-08-06T01:10:53;3.08;;;2.50;;
20491;SDS011;10404;51.468;6.762;2023-08-06T01:13:28;2.67;;;2.47;;
20491;SDS011;10404;51.468;6.762;2023-08-06T01:16:02;3.75;;;3.45;;
20491;SDS011;10404;51.468;6.762;2023-08-06T01:18:30;3.97;;;2.75;;
20491;SDS011;10404;51.468;6.762;2023-08-06T01:20:56;3.92;;;3.25;;
20491;SDS011;10404;51.468;6.762;2023-08-06T01:23:22;3.75;;;2.90;;
20491;SDS011;10404;51.468;6.762;2023-08-06T01:25:53;3.17;;;2.92;;
20491;SDS011;10404;51.468;6.762;2023-08-06T01:28:59;3.50;;;3.20;;
20491;SDS011;10404;51.468;6.762;2023-08-06T01:31:26;3.92;;;3.63;;
20491;SDS011;10404;51.468;6.762;2023-08-06T01:33:55;3.55;;;2.70;;
20491;SDS011;10404;51.468;6.762;2023-08-06T01:36:22;3.20;;;2.97;;
20491;SDS011;10404;51.468;6.762;2023-08-06T01:38:48;3.03;;;2.75;;
20491;SDS011;10404;51.468;6.762;2023-08-06T01:41:16;3.67;;;3.38;;
20491;SDS011;10404;51.468;6.762;2023-08-06T01:43:42;2.95;;;2.65;;
20491;SDS011;10404;51.468;6.762;2023-08-06T01:46:08;4.32;;;3.92;;
20491;SDS011;10404;51.468;6.762;2023-08-06T01:48:33;3.15;;;2.85;;
20491;SDS011;10404;51.468;6.762;2023-08-06T01:50:59;3.83;;;3.50;;
20491;SDS011;10404;51.468;6.762;2023-08-06T01:53:24;3.45;;;3.17;;
20491;SDS011;10404;51.468;6.762;2023-08-06T01:55:50;3.42;;;3.13;;
20491;SDS011;10404;51.468;6.762;2023-08-06T01:58:15;3.95;;;3.60;;
20491;SDS011;10404;51.468;6.762;2023-08-06T02:00:41;2.60;;;2.15;;
20491;SDS011;10404;51.468;6.762;2023-08-06T02:03:06;3.47;;;3.20;;
20491;SDS011;10404;51.468;6.762;2023-08-06T02:05:32;3.17;;;2.15;;
20491;SDS011;10404;51.468;6.762;2023-08-06T02:07:58;6.07;;;4.00;;
20491;SDS011;10404;51.468;6.762;2023-08-06T02:10:23;3.58;;;3.15;;
20491;SDS011;10404;51.468;6.762;2023-08-06T02:12:49;3.25;;;2.95;;
20491;SDS011;10404;51.468;6.762;2023-08-06T02:15:14;3.38;;;3.08;;
20491;SDS011;10404;51.468;6.762;2023-08-06T02:17:40;3.10;;;2.58;;
20491;SDS011;10404;51.468;6.762;2023-08-06T02:20:06;2.90;;;2.70;;
20491;SDS011;10404;51.468;6.762;2023-08-06T02:22:32;3.05;;;2.60;;
20491;SDS011;10404;51.468;6.762;2023-08-06T02:24:58;3.45;;;3.08;;
20491;SDS011;10404;51.468;6.762;2023-08-06T02:27:24;3.20;;;3.00;;
20491;SDS011;10404;51.468;6.762;2023-08-06T02:29:49;3.40;;;2.70;;
20491;SDS011;10404;51.468;6.762;2023-08-06T02:32:15;4.32;;;3.92;;
20491;SDS011;10404;51.468;6.762;2023-08-06T02:34:40;3.00;;;2.80;;
20491;SDS011;10404;51.468;6.762;2023-08-06T02:37:06;4.05;;;3.75;;
20491;SDS011;10404;51.468;6.762;2023-08-06T02:39:31;3.30;;;2.15;;
20491;SDS011;10404;51.468;6.762;2023-08-06T02:41:58;3.42;;;3.00;;
20491;SDS011;10404;51.468;6.762;2023-08-06T02:44:26;3.13;;;2.83;;
20491;SDS011;10404;51.468;6.762;2023-08-06T02:46:53;3.25;;;2.80;;
20491;SDS011;10404;51.468;6.762;2023-08-06T02:49:18;3.47;;;3.17;;
20491;SDS011;10404;51.468;6.762;2023-08-06T02:51:46;3.22;;;2.65;;
20491;SDS011;10404;51.468;6.762;2023-08-06T02:54:12;3.72;;;3.20;;
20491;SDS011;10404;51.468;6.762;2023-08-06T02:56:38;3.55;;;2.83;;
20491;SDS011;10404;51.468;6.762;2023-08-06T02:59:03;3.58;;;3.22;;
20491;SDS011;10404;51.468;6.762;2023-08-06T03:01:29;3.90;;;3.45;;
20491;SDS011;10404;51.468;6.762;2023-08-06T03:03:55;2.47;;;2.28;;
20491;SDS011;10404;51.468;6.762;2023-08-06T03:06:20;4.07;;;3.78;;
20491;SDS011;10404;51.468;6.762;2023-08-06T03:08:46;3.10;;;2.65;;
20491;SDS011;10404;51.468;6.762;2023-08-06T03:11:11;4.03;;;3.67;;
20491;SDS011;10404;51.468;6.762;2023-08-06T03:13:37;2.88;;;2.35;;
20491;SDS011;10404;51.468;6.762;2023-08-06T03:16:02;3.40;;;3.10;;
20491;SDS011;10404;51.468;6.762;2023-08-06T03:18:28;2.63;;;2.42;;
20491;SDS011;10404;51.468;6.762;2023-08-06T03:20:54;3.05;;;2.75;;
20491;SDS011;10404;51.468;6.762;2023-08-06T03:23:20;3.50;;;3.20;;
20491;SDS011;10404;51.468;6.762;2023-08-06T03:25:45;3.45;;;2.35;;
20491;SDS011;10404;51.468;6.762;2023-08-06T03:28:11;3.83;;;3.50;;
20491;SDS011;10404;51.468;6.762;2023-08-06T03:30:38;3.38;;;2.75;;
20491;SDS011;10404;51.468;6.762;2023-08-06T03:33:03;3.10;;;2.80;;
20491;SDS011;10404;51.468;6.762;2023-08-06T03:35:29;3.13;;;2.83;;
20491;SDS011;10404;51.468;6.762;2023-08-06T03:37:55;2.42;;;2.22;;
20491;SDS011;10404;51.468;6.762;2023-08-06T03:40:20;3.75;;;3.45;;
20491;SDS011;10404;51.468;6.762;2023-08-06T03:42:46;4.15;;;3.28;;
20491;SDS011;10404;51.468;6.762;2023-08-06T03:45:11;3.45;;;3.15;;
20491;SDS011;10404;51.468;6.762;2023-08-06T03:47:37;3.20;;;2.90;;
20491;SDS011;10404;51.468;6.762;2023-08-06T03:50:03;4.15;;;3.03;;
20491;SDS011;10404;51.468;6.762;2023-08-06T03:52:29;4.43;;;2.70;;
20491;SDS011;10404;51.468;6.762;2023-08-06T03:54:54;3.55;;;2.50;;
20491;SDS011;10404;51.468;6.762;2023-08-06T03:57:20;2.85;;;2.60;;
20491;SDS011;10404;51.468;6.762;2023-08-06T03:59:45;3.78;;;2.63;;
20491;SDS011;10404;51.468;6.762;2023-08-06T04:02:11;4.28;;;3.88;;
20491;SDS011;10404;51.468;6.762;2023-08-06T04:04:36;2.90;;;2.60;;
20491;SDS011;10404;51.468;6.762;2023-08-06T04:07:02;3.08;;;2.80;;
20491;SDS011;10404;51.468;6.762;2023-08-06T04:09:28;3.25;;;2.70;;
20491;SDS011;10404;51.468;6.762;2023-08-06T04:11:54;3.75;;;2.40;;
20491;SDS011;10404;51.468;6.762;2023-08-06T04:14:20;3.67;;;3.33;;
20491;SDS011;10404;51.468;6.762;2023-08-06T04:16:46;2.80;;;2.30;;
20491;SDS011;10404;51.468;6.762;2023-08-06T04:19:12;4.55;;;4.15;;
20491;SDS011;10404;51.468;6.762;2023-08-06T04:21:37;2.95;;;2.35;;
20491;SDS011;10404;51.468;6.762;2023-08-06T04:24:03;3.22;;;2.92;;
20491;SDS011;10404;51.468;6.762;2023-08-06T04:26:28;2.67;;;2.47;;
20491;SDS011;10404;51.468;6.762;2023-08-06T04:28:54;2.75;;;2.25;;
20491;SDS011;10404;51.468;6.762;2023-08-06T04:31:20;3.50;;;3.20;;
20491;SDS011;10404;51.468;6.762;2023-08-06T04:33:46;3.00;;;2.80;;
20491;SDS011;10404;51.468;6.762;2023-08-06T04:36:12;3.50;;;3.20;;
20491;SDS011;10404;51.468;6.762;2023-08-06T04:38:37;2.85;;;2.30;;
20491;SDS011;10404;51.468;6.762;2023-08-06T04:41:03;3.47;;;3.13;;
20491;SDS011;10404;51.468;6.762;2023-08-06T04:43:29;2.58;;;2.38;;
20491;SDS011;10404;51.468;6.762;2023-08-06T04:45:55;2.83;;;2.63;;
20491;SDS011;10404;51.468;6.762;2023-08-06T04:48:21;3.67;;;3.38;;
20491;SDS011;10404;51.468;6.762;2023-08-06T04:50:47;3.40;;;3.10;;
20491;SDS011;10404;51.468;6.762;2023-08-06T04:53:14;3.33;;;3.03;;
20491;SDS011;10404;51.468;6.762;2023-08-06T04:55:41;2.97;;;2.47;;
20491;SDS011;10404;51.468;6.762;2023-08-06T04:58:07;3.63;;;3.28;;
20491;SDS011;10404;51.468;6.762;2023-08-06T05:00:33;2.53;;;2.33;;
20491;SDS011;10404;51.468;6.762;2023-08-06T05:02:59;2.97;;;2.65;;
20491;SDS011;10404;51.468;6.762;2023-08-06T05:05:26;3.42;;;3.03;;
20491;SDS011;10404;51.468;6.762;2023-08-06T05:07:53;3.78;;;2.30;;
20491;SDS011;10404;51.468;6.762;2023-08-06T05:10:20;3.22;;;2.92;;
20491;SDS011;10404;51.468;6.762;2023-08-06T05:12:46;3.53;;;2.50;;
20491;SDS011;10404;51.468;6.762;2023-08-06T05:15:11;4.07;;;3.67;;
20491;SDS011;10404;51.468;6.762;2023-08-06T05:17:37;2.70;;;2.50;;
20491;SDS011;10404;51.468;6.762;2023-08-06T05:20:03;3.58;;;2.80;;
20491;SDS011;10404;51.468;6.762;2023-08-06T05:22:29;3.13;;;2.65;;
20491;SDS011;10404;51.468;6.762;2023-08-06T05:24:54;2.72;;;2.53;;
20491;SDS011;10404;51.468;6.762;2023-08-06T05:27:20;4.00;;;3.67;;
20491;SDS011;10404;51.468;6.762;2023-08-06T05:29:45;2.30;;;2.10;;
20491;SDS011;10404;51.468;6.762;2023-08-06T05:32:13;4.20;;;3.90;;
20491;SDS011;10404;51.468;6.762;2023-08-06T05:34:38;2.53;;;2.33;;
20491;SDS011;10404;51.468;6.762;2023-08-06T05:37:04;3.63;;;2.55;;
20491;SDS011;10404;51.468;6.762;2023-08-06T05:39:30;3.10;;;2.80;;
20491;SDS011;10404;51.468;6.762;2023-08-06T05:41:55;2.75;;;2.47;;
20491;SDS011;10404;51.468;6.762;2023-08-06T05:44:21;3.47;;;2.58;;
20491;SDS011;10404;51.468;6.762;2023-08-06T05:46:48;2.83;;;2.53;;
20491;SDS011;10404;51.468;6.762;2023-08-06T05:49:14;3.30;;;3.08;;
20491;SDS011;10404;51.468;6.762;2023-08-06T05:51:40;3.00;;;2.33;;
20491;SDS011;10404;51.468;6.762;2023-08-06T05:54:06;3.20;;;2.75;;
20491;SDS011;10404;51.468;6.762;2023-08-06T05:56:31;2.72;;;2.30;;
20491;SDS011;10404;51.468;6.762;2023-08-06T05:58:57;2.92;;;2.42;;
20491;SDS011;10404;51.468;6.762;2023-08-06T06:01:23;3.50;;;3.20;;
20491;SDS011;10404;51.468;6.762;2023-08-06T06:03:48;3.75;;;2.58;;
20491;SDS011;10404;51.468;6.762;2023-08-06T06:06:14;4.05;;;3.65;;
20491;SDS011;10404;51.468;6.762;2023-08-06T06:08:41;3.00;;;2.38;;
20491;SDS011;10404;51.468;6.762;2023-08-06T06:11:06;2.72;;;2.42;;
20491;SDS011;10404;51.468;6.762;2023-08-06T06:13:32;2.53;;;2.33;;
20491;SDS011;10404;51.468;6.762;2023-08-06T06:15:57;3.70;;;2.53;;
20491;SDS011;10404;51.468;6.762;2023-08-06T06:18:23;3.03;;;2.72;;
20491;SDS011;10404;51.468;6.762;2023-08-06T06:20:48;2.88;;;2.58;;
20491;SDS011;10404;51.468;6.762;2023-08-06T06:23:14;3.53;;;3.25;;
20491;SDS011;10404;51.468;6.762;2023-08-06T06:25:42;2.70;;;2.50;;
20491;SDS011;10404;51.468;6.762;2023-08-06T06:30:34;2.35;;;2.13;;
20491;SDS011;10404;51.468;6.762;2023-08-06T06:32:59;3.05;;;2.72;;
20491;SDS011;10404;51.468;6.762;2023-08-06T06:35:25;3.13;;;2.83;;
20491;SDS011;10404;51.468;6.762;2023-08-06T06:37:51;3.05;;;2.70;;
20491;SDS011;10404;51.468;6.762;2023-08-06T06:40:16;3.72;;;3.38;;
20491;SDS011;10404;51.468;6.762;2023-08-06T06:42:42;3.70;;;3.10;;
20491;SDS011;10404;51.468;6.762;2023-08-06T06:45:08;3.75;;;3.45;;
20491;SDS011;10404;51.468;6.762;2023-08-06T06:47:34;2.55;;;2.35;;
20491;SDS011;10404;51.468;6.762;2023-08-06T06:49:59;2.75;;;2.35;;
20491;SDS011;10404;51.468;6.762;2023-08-06T06:52:25;3.53;;;3.22;;
20491;SDS011;10404;51.468;6.762;2023-08-06T06:54:50;3.05;;;2.75;;
20491;SDS011;10404;51.468;6.762;2023-08-06T06:57:16;3.80;;;3.50;;
20491;SDS011;10404;51.468;6.762;2023-08-06T06:59:41;3.20;;;2.78;;
20491;SDS011;10404;51.468;6.762;2023-08-06T07:02:07;2.88;;;2.67;;
20491;SDS011;10404;51.468;6.762;2023-08-06T07:04:33;3.00;;;2.10;;
20491;SDS011;10404;51.468;6.762;2023-08-06T07:06:58;2.13;;;1.90;;
20491;SDS011;10404;51.468;6.762;2023-08-06T07:09:24;3.08;;;2.78;;
20491;SDS011;10404;51.468;6.762;2023-08-06T07:11:49;2.63;;;2.42;;
20491;SDS011;10404;51.468;6.762;2023-08-06T07:14:15;3.45;;;3.10;;
20491;SDS011;10404;51.468;6.762;2023-08-06T07:16:42;3.13;;;2.38;;
20491;SDS011;10404;51.468;6.762;2023-08-06T07:19:07;2.90;;;2.63;;
20491;SDS011;10404;51.468;6.762;2023-08-06T07:21:33;2.80;;;2.60;;
20491;SDS011;10404;51.468;6.762;2023-08-06T07:23:58;2.40;;;1.95;;
20491;SDS011;10404;51.468;6.762;2023-08-06T07:26:24;3.42;;;3.22;;
20491;SDS011;10404;51.468;6.762;2023-08-06T07:28:50;3.08;;;2.50;;
20491;SDS011;10404;51.468;6.762;2023-08-06T07:31:16;2.67;;;2.47;;
20491;SDS011;10404;51.468;6.762;2023-08-06T07:33:41;2.97;;;2.15;;
20491;SDS011;10404;51.468;6.762;2023-08-06T07:36:07;2.95;;;2.38;;
20491;SDS011;10404;51.468;6.762;2023-08-06T07:38:34;3.72;;;2.67;;
20491;SDS011;10404;51.468;6.762;2023-08-06T07:41:01;3.20;;;2.25;;
20491;SDS011;10404;51.468;6.762;2023-08-06T07:43:27;3.13;;;2.88;;
20491;SDS011;10404;51.468;6.762;2023-08-06T07:45:52;3.00;;;2.70;;
20491;SDS011;10404;51.468;6.762;2023-08-06T07:48:18;2.80;;;2.40;;
20491;SDS011;10404;51.468;6.762;2023-08-06T07:50:44;2.42;;;2.22;;
20491;SDS011;10404;51.468;6.762;2023-08-06T07:53:15;3.72;;;3.42;;
20491;SDS011;10404;51.468;6.762;2023-08-06T07:55:41;2.65;;;2.42;;
20491;SDS011;10404;51.468;6.762;2023-08-06T07:58:07;2.95;;;2.53;;
20491;SDS011;10404;51.468;6.762;2023-08-06T08:00:33;2.90;;;2.70;;
20491;SDS011;10404;51.468;6.762;2023-08-06T08:02:58;2.58;;;2.35;;
20491;SDS011;10404;51.468;6.762;2023-08-06T08:05:24;4.22;;;3.60;;
20491;SDS011;10404;51.468;6.762;2023-08-06T08:07:49;2.90;;;2.60;;
20491;SDS011;10404;51.468;6.762;2023-08-06T08:10:15;4.35;;;3.95;;
20491;SDS011;10404;51.468;6.762;2023-08-06T08:12:40;3.17;;;2.25;;
20491;SDS011;10404;51.468;6.762;2023-08-06T08:15:07;4.18;;;3.42;;
20491;SDS011;10404;51.468;6.762;2023-08-06T08:17:33;3.92;;;3.03;;
20491;SDS011;10404;51.468;6.762;2023-08-06T08:19:59;3.63;;;3.33;;
20491;SDS011;10404;51.468;6.762;2023-08-06T08:22:25;4.32;;;3.92;;
20491;SDS011;10404;51.468;6.762;2023-08-06T08:24:50;3.33;;;3.03;;
20491;SDS011;10404;51.468;6.762;2023-08-06T08:27:16;4.90;;;4.50;;
20491;SDS011;10404;51.468;6.762;2023-08-06T08:29:42;3.38;;;3.08;;
20491;SDS011;10404;51.468;6.762;2023-08-06T08:32:07;5.63;;;5.18;;
20491;SDS011;10404;51.468;6.762;2023-08-06T08:34:33;3.55;;;3.22;;
20491;SDS011;10404;51.468;6.762;2023-08-06T08:36:58;3.95;;;3.55;;
20491;SDS011;10404;51.468;6.762;2023-08-06T08:39:24;4.15;;;3.85;;
20491;SDS011;10404;51.468;6.762;2023-08-06T08:41:49;3.13;;;2.72;;
20491;SDS011;10404;51.468;6.762;2023-08-06T08:44:15;4.65;;;4.25;;
20491;SDS011;10404;51.468;6.762;2023-08-06T08:46:42;3.47;;;2.75;;
20491;SDS011;10404;51.468;6.762;2023-08-06T08:49:08;4.00;;;3.47;;
20491;SDS011;10404;51.468;6.762;2023-08-06T08:51:35;4.40;;;4.00;;
20491;SDS011;10404;51.468;6.762;2023-08-06T08:54:04;4.38;;;3.97;;
20491;SDS011;10404;51.468;6.762;2023-08-06T08:56:33;4.00;;;3.60;;
20491;SDS011;10404;51.468;6.762;2023-08-06T08:58:58;4.03;;;3.63;;
20491;SDS011;10404;51.468;6.762;2023-08-06T09:01:24;4.40;;;3.92;;
20491;SDS011;10404;51.468;6.762;2023-08-06T09:03:51;3.97;;;3.45;;
20491;SDS011;10404;51.468;6.762;2023-08-06T09:06:19;3.75;;;3.45;;
20491;SDS011;10404;51.468;6.762;2023-08-06T09:08:51;4.90;;;3.92;;
20491;SDS011;10404;51.468;6.762;2023-08-06T09:11:24;5.38;;;4.88;;
20491;SDS011;10404;51.468;6.762;2023-08-06T09:13:51;4.15;;;3.35;;
20491;SDS011;10404;51.468;6.762;2023-08-06T09:16:19;4.35;;;3.95;;
20491;SDS011;10404;51.468;6.762;2023-08-06T09:18:44;5.18;;;3.50;;
20491;SDS011;10404;51.468;6.762;2023-08-06T09:21:13;4.47;;;4.07;;
20491;SDS011;10404;51.468;6.762;2023-08-06T09:23:41;4.82;;;4.32;;
20491;SDS011;10404;51.468;6.762;2023-08-06T09:26:06;4.57;;;4.20;;
20491;SDS011;10404;51.468;6.762;2023-08-06T09:28:36;4.38;;;3.97;;
20491;SDS011;10404;51.468;6.762;2023-08-06T09:31:08;5.78;;;5.38;;
20491;SDS011;10404;51.468;6.762;2023-08-06T09:33:35;5.45;;;4.45;;
20491;SDS011;10404;51.468;6.762;2023-08-06T09:36:08;4.30;;;3.90;;
20491;SDS011;10404;51.468;6.762;2023-08-06T09:38:37;4.50;;;3.90;;
20491;SDS011;10404;51.468;6.762;2023-08-06T09:41:04;3.95;;;3.55;;
20491;SDS011;10404;51.468;6.762;2023-08-06T09:43:30;4.72;;;4.32;;
20491;SDS011;10404;51.468;6.762;2023-08-06T09:45:55;4.28;;;3.88;;
20491;SDS011;10404;51.468;6.762;2023-08-06T09:48:21;4.65;;;4.25;;
20491;SDS011;10404;51.468;6.762;2023-08-06T09:50:49;4.38;;;3.80;;
20491;SDS011;10404;51.468;6.762;2023-08-06T09:53:17;4.75;;;4.38;;
20491;SDS011;10404;51.468;6.762;2023-08-06T09:55:44;3.90;;;3.60;;
20491;SDS011;10404;51.468;6.762;2023-08-06T09:58:11;4.00;;;3.60;;
20491;SDS011;10404;51.468;6.762;2023-08-06T10:00:37;4.05;;;3.08;;
20491;SDS011;10404;51.468;6.762;2023-08-06T10:03:03;5.97;;;4.72;;
20491;SDS011;10404;51.468;6.762;2023-08-06T10:05:29;4.50;;;4.10;;
20491;SDS011;10404;51.468;6.762;2023-08-06T10:07:57;4.60;;;4.20;;
20491;SDS011;10404;51.468;6.762;2023-08-06T10:10:25;4.78;;;4.28;;
20491;SDS011;10404;51.468;6.762;2023-08-06T10:12:54;4.35;;;3.95;;
20491;SDS011;10404;51.468;6.762;2023-08-06T10:15:23;6.30;;;5.80;;
20491;SDS011;10404;51.468;6.762;2023-08-06T10:17:51;5.28;;;4.88;;
20491;SDS011;10404;51.468;6.762;2023-08-06T10:20:20;5.78;;;5.32;;
20491;SDS011;10404;51.468;6.762;2023-08-06T10:22:59;5.30;;;4.90;;
20491;SDS011;10404;51.468;6.762;2023-08-06T10:25:35;5.72;;;5.32;;
20491;SDS011;10404;51.468;6.762;2023-08-06T10:28:09;4.97;;;4.47;;
20491;SDS011;10404;51.468;6.762;2023-08-06T10:30:41;5.55;;;5.05;;
20491;SDS011;10404;51.468;6.762;2023-08-06T10:33:10;7.38;;;6.57;;
20491;SDS011;10404;51.468;6.762;2023-08-06T10:38:13;6.45;;;5.95;;
20491;SDS011;10404;51.468;6.762;2023-08-06T10:40:41;6.82;;;6.30;;
20491;SDS011;10404;51.468;6.762;2023-08-06T10:43:24;6.40;;;5.90;;
20491;SDS011;10404;51.468;6.762;2023-08-06T10:45:51;6.53;;;5.90;;
20491;SDS011;10404;51.468;6.762;2023-08-06T10:48:30;7.07;;;6.38;;
20491;SDS011;10404;51.468;6.762;2023-08-06T10:51:01;6.88;;;6.28;;
20491;SDS011;10404;51.468;6.762;2023-08-06T10:53:27;8.38;;;7.68;;
20491;SDS011;10404;51.468;6.762;2023-08-06T10:55:53;7.18;;;6.63;;
20491;SDS011;10404;51.468;6.762;2023-08-06T10:58:18;6.70;;;6.10;;
20491;SDS011;10404;51.468;6.762;2023-08-06T11:00:44;6.88;;;6.28;;
20491;SDS011;10404;51.468;6.762;2023-08-06T11:03:11;7.13;;;6.63;;
20491;SDS011;10404;51.468;6.762;2023-08-06T11:05:36;5.82;;;5.32;;
20491;SDS011;10404;51.468;6.762;2023-08-06T11:08:02;5.65;;;5.15;;
20491;SDS011;10404;51.468;6.762;2023-08-06T11:10:28;5.57;;;5.07;;
20491;SDS011;10404;51.468;6.762;2023-08-06T11:12:53;4.50;;;4.10;;
20491;SDS011;10404;51.468;6.762;2023-08-06T11:15:20;4.65;;;4.22;;
20491;SDS011;10404;51.468;6.762;2023-08-06T11:17:46;4.43;;;4.13;;
20491;SDS011;10404;51.468;6.762;2023-08-06T11:20:12;4.80;;;4.40;;
20491;SDS011;10404;51.468;6.762;2023-08-06T11:22:38;5.35;;;3.65;;
20491;SDS011;10404;51.468;6.762;2023-08-06T11:25:04;3.80;;;3.17;;
20491;SDS011;10404;51.468;6.762;2023-08-06T11:27:31;3.00;;;2.70;;
20491;SDS011;10404;51.468;6.762;2023-08-06T11:29:57;3.97;;;2.63;;
20491;SDS011;10404;51.468;6.762;2023-08-06T11:32:22;4.55;;;4.25;;
20491;SDS011;10404;51.468;6.762;2023-08-06T11:34:48;2.97;;;2.53;;
20491;SDS011;10404;51.468;6.762;2023-08-06T11:37:14;3.50;;;3.20;;
20491;SDS011;10404;51.468;6.762;2023-08-06T11:39:44;3.05;;;2.85;;
20491;SDS011;10404;51.468;6.762;2023-08-06T11:42:11;3.30;;;3.00;;
20491;SDS011;10404;51.468;6.762;2023-08-06T11:44:37;2.30;;;2.10;;
20491;SDS011;10404;51.468;6.762;2023-08-06T11:47:03;2.55;;;2.35;;
20491;SDS011;10404;51.468;6.762;2023-08-06T11:49:46;2.85;;;1.90;;
20491;SDS011;10404;51.468;6.762;2023-08-06T11:52:17;3.08;;;2.88;;
20491;SDS011;10404;51.468;6.762;2023-08-06T11:55:09;2.50;;;2.30;;
20491;SDS011;10404;51.468;6.762;2023-08-06T11:57:37;2.30;;;2.10;;
20491;SDS011;10404;51.468;6.762;2023-08-06T12:02:32;2.28;;;2.05;;
20491;SDS011;10404;51.468;6.762;2023-08-06T12:05:21;1.65;;;1.40;;
20491;SDS011;10404;51.468;6.762;2023-08-06T12:07:51;1.67;;;1.55;;
20491;SDS011;10404;51.468;6.762;2023-08-06T12:10:21;2.17;;;1.98;;
20491;SDS011;10404;51.468;6.762;2023-08-06T12:12:49;1.35;;;1.25;;
20491;SDS011;10404;51.468;6.762;2023-08-06T12:15:15;1.95;;;1.75;;
20491;SDS011;10404;51.468;6.762;2023-08-06T12:17:41;1.58;;;1.38;;
20491;SDS011;10404;51.468;6.762;2023-08-06T12:20:07;1.95;;;1.85;;
20491;SDS011;10404;51.468;6.762;2023-08-06T12:22:33;1.58;;;1.48;;
20491;SDS011;10404;51.468;6.762;2023-08-06T12:25:00;2.85;;;1.08;;
20491;SDS011;10404;51.468;6.762;2023-08-06T12:27:27;1.88;;;1.75;;
20491;SDS011;10404;51.468;6.762;2023-08-06T12:29:53;1.65;;;1.33;;
20491;SDS011;10404;51.468;6.762;2023-08-06T12:32:18;2.75;;;2.55;;
20491;SDS011;10404;51.468;6.762;2023-08-06T12:34:44;1.35;;;1.25;;
20491;SDS011;10404;51.468;6.762;2023-08-06T12:37:09;1.60;;;1.42;;
20491;SDS011;10404;51.468;6.762;2023-08-06T12:39:36;1.50;;;1.20;;
20491;SDS011;10404;51.468;6.762;2023-08-06T12:42:02;1.30;;;1.20;;
20491;SDS011;10404;51.468;6.762;2023-08-06T12:44:29;1.88;;;1.77;;
20491;SDS011;10404;51.468;6.762;2023-08-06T12:46:55;1.63;;;1.25;;
20491;SDS011;10404;51.468;6.762;2023-08-06T12:49:21;2.40;;;2.20;;
20491;SDS011;10404;51.468;6.762;2023-08-06T12:51:50;1.85;;;1.40;;
20491;SDS011;10404;51.468;6.762;2023-08-06T12:54:17;2.22;;;2.13;;
20491;SDS011;10404;51.468;6.762;2023-08-06T12:56:43;2.17;;;1.48;;
20491;SDS011;10404;51.468;6.762;2023-08-06T12:59:10;2.75;;;2.55;;
20491;SDS011;10404;51.468;6.762;2023-08-06T13:01:37;2.47;;;2.28;;
20491;SDS011;10404;51.468;6.762;2023-08-06T13:04:03;2.60;;;1.52;;
20491;SDS011;10404;51.468;6.762;2023-08-06T13:06:28;2.70;;;2.50;;
20491;SDS011;10404;51.468;6.762;2023-08-06T13:08:55;1.58;;;1.25;;
20491;SDS011;10404;51.468;6.762;2023-08-06T13:11:21;2.50;;;2.30;;
20491;SDS011;10404;51.468;6.762;2023-08-06T13:13:47;1.70;;;1.60;;
20491;SDS011;10404;51.468;6.762;2023-08-06T13:16:13;2.20;;;2.00;;
20491;SDS011;10404;51.468;6.762;2023-08-06T13:18:38;2.35;;;2.15;;
20491;SDS011;10404;51.468;6.762;2023-08-06T13:21:04;2.63;;;2.03;;
20491;SDS011;10404;51.468;6.762;2023-08-06T13:23:29;3.08;;;2.75;;
20491;SDS011;10404;51.468;6.762;2023-08-06T13:25:55;1.75;;;1.55;;
20491;SDS011;10404;51.468;6.762;2023-08-06T13:28:20;2.42;;;2.22;;
20491;SDS011;10404;51.468;6.762;2023-08-06T13:30:46;2.50;;;2.30;;
20491;SDS011;10404;51.468;6.762;2023-08-06T13:33:12;2.10;;;2.00;;
20491;SDS011;10404;51.468;6.762;2023-08-06T13:35:38;2.30;;;1.75;;
20491;SDS011;10404;51.468;6.762;2023-08-06T13:38:04;2.25;;;2.05;;
20491;SDS011;10404;51.468;6.762;2023-08-06T13:40:30;2.65;;;2.45;;
20491;SDS011;10404;51.468;6.762;2023-08-06T13:42:57;2.40;;;1.80;;
20491;SDS011;10404;51.468;6.762;2023-08-06T13:45:23;2.72;;;2.53;;
20491;SDS011;10404;51.468;6.762;2023-08-06T13:47:48;2.13;;;1.70;;
20491;SDS011;10404;51.468;6.762;2023-08-06T13:50:14;3.20;;;2.97;;
20491;SDS011;10404;51.468;6.762;2023-08-06T13:52:40;2.63;;;1.80;;
20491;SDS011;10404;51.468;6.762;2023-08-06T13:55:05;2.10;;;1.75;;
20491;SDS011;10404;51.468;6.762;2023-08-06T13:57:32;3.05;;;2.83;;
20491;SDS011;10404;51.468;6.762;2023-08-06T13:59:57;2.47;;;2.25;;
20491;SDS011;10404;51.468;6.762;2023-08-06T14:02:23;3.97;;;3.20;;
20491;SDS011;10404;51.468;6.762;2023-08-06T14:04:48;2.40;;;2.05;;
20491;SDS011;10404;51.468;6.762;2023-08-06T14:07:14;3.95;;;3.47;;
20491;SDS011;10404;51.468;6.762;2023-08-06T14:09:40;3.15;;;2.30;;
20491;SDS011;10404;51.468;6.762;2023-08-06T14:12:07;3.60;;;3.30;;
20491;SDS011;10404;51.468;6.762;2023-08-06T14:14:32;3.83;;;3.53;;
20491;SDS011;10404;51.468;6.762;2023-08-06T14:16:58;2.95;;;2.67;;
20491;SDS011;10404;51.468;6.762;2023-08-06T14:19:24;3.50;;;3.20;;
20491;SDS011;10404;51.468;6.762;2023-08-06T14:21:50;3.88;;;3.13;;
20491;SDS011;10404;51.468;6.762;2023-08-06T14:24:15;2.65;;;2.30;;
20491;SDS011;10404;51.468;6.762;2023-08-06T14:26:41;3.28;;;2.75;;
20491;SDS011;10404;51.468;6.762;2023-08-06T14:29:07;3.90;;;2.95;;
20491;SDS011;10404;51.468;6.762;2023-08-06T14:31:32;4.03;;;3.72;;
20491;SDS011;10404;51.468;6.762;2023-08-06T14:33:58;3.42;;;2.47;;
20491;SDS011;10404;51.468;6.762;2023-08-06T14:36:23;3.28;;;2.75;;
20491;SDS011;10404;51.468;6.762;2023-08-06T14:38:49;3.17;;;2.13;;
20491;SDS011;10404;51.468;6.762;2023-08-06T14:41:14;3.10;;;2.70;;
20491;SDS011;10404;51.468;6.762;2023-08-06T14:43:40;3.95;;;2.42;;
20491;SDS011;10404;51.468;6.762;2023-08-06T14:46:05;3.08;;;2.70;;
20491;SDS011;10404;51.468;6.762;2023-08-06T14:48:31;3.72;;;2.75;;
20491;SDS011;10404;51.468;6.762;2023-08-06T14:50:56;2.25;;;1.90;;
20491;SDS011;10404;51.468;6.762;2023-08-06T14:53:22;3.58;;;3.08;;
20491;SDS011;10404;51.468;6.762;2023-08-06T14:55:48;2.78;;;2.50;;